Time;durP1;ratioP1;P1;durP2;ratioP2;P2;SDS_P1;SDS_P2;PMS_P1;PMS_P2;Temp;Humidity;BMP_temperature;BMP_pressure;BME280_temperature;BME280_humidity;BME280_pressure;Samples;Min_cycle;Max_cycle;Signal;HPM_P1;HPM_P2
2022/12/11 00:01:13;;;;;;;0.60;0.60;;;-4.80;93.40;;;;;;5075936;28;20221;-68
2022/12/11 00:03:39;;;;;;;0.68;0.68;;;-4.90;93.20;;;;;;5076502;28;20530;-69
2022/12/11 00:06:10;;;;;;;0.60;0.60;;;-5.10;93.20;;;;;;5075761;28;20173;-68
2022/12/11 00:08:36;;;;;;;0.40;0.40;;;-5.10;93.40;;;;;;5075890;28;20485;-68
2022/12/11 00:11:02;;;;;;;0.77;0.77;;;-5.20;93.40;;;;;;5076021;28;20170;-68
2022/12/11 00:13:28;;;;;;;0.50;0.50;;;-5.20;93.40;;;;;;5075983;28;20172;-68
2022/12/11 00:15:54;;;;;;;0.50;0.50;;;-5.20;93.30;;;;;;5075507;28;20261;-68
2022/12/11 00:18:19;;;;;;;0.90;0.90;;;-5.30;93.30;;;;;;5075663;28;20724;-68
2022/12/11 00:20:45;;;;;;;1.27;1.27;;;-5.30;93.30;;;;;;5075706;28;20400;-68
2022/12/11 00:23:11;;;;;;;0.63;0.63;;;-5.30;93.40;;;;;;5075659;28;20193;-68
2022/12/11 00:25:43;;;;;;;0.73;0.73;;;-5.10;93.60;;;;;;5075536;28;20170;-68
2022/12/11 00:28:14;;;;;;;0.70;0.70;;;-5.10;93.30;;;;;;5075706;28;20423;-67
2022/12/11 00:30:41;;;;;;;0.55;0.55;;;-5.10;93.30;;;;;;5075739;28;20160;-68
2022/12/11 00:33:08;;;;;;;0.90;0.90;;;-5.10;93.30;;;;;;5075465;28;20177;-68
2022/12/11 00:35:40;;;;;;;0.50;0.50;;;-5.20;93.30;;;;;;5075273;28;20183;-68
2022/12/11 00:38:06;;;;;;;0.45;0.45;;;-5.20;93.30;;;;;;5075375;28;20290;-68
2022/12/11 00:40:36;;;;;;;0.52;0.52;;;-5.30;93.10;;;;;;5075303;28;20678;-68
2022/12/11 00:43:02;;;;;;;0.63;0.63;;;-5.30;93.10;;;;;;5075302;28;20201;-67
2022/12/11 00:45:28;;;;;;;0.90;0.90;;;-5.30;93.10;;;;;;5075293;28;20543;-68
2022/12/11 00:47:53;;;;;;;0.70;0.70;;;-5.30;93.00;;;;;;5075381;28;20195;-68
2022/12/11 00:50:19;;;;;;;0.60;0.60;;;-5.40;92.80;;;;;;5075255;28;20244;-67
2022/12/11 00:52:44;;;;;;;0.73;0.73;;;-5.50;92.80;;;;;;5075167;28;20185;-67
2022/12/11 00:55:10;;;;;;;0.70;0.70;;;-5.50;93.00;;;;;;5074894;28;20199;-67
2022/12/11 00:57:36;;;;;;;0.60;0.60;;;-5.40;93.10;;;;;;5075024;28;20628;-67
2022/12/11 01:00:05;;;;;;;0.60;0.60;;;-5.40;92.60;;;;;;5075116;28;20180;-67
2022/12/11 01:02:32;;;;;;;0.60;0.60;;;-5.40;92.50;;;;;;5074969;28;20206;-67
2022/12/11 01:04:57;;;;;;;0.70;0.70;;;-5.50;92.50;;;;;;5074622;28;20215;-67
2022/12/11 01:07:24;;;;;;;0.70;0.70;;;-5.50;92.50;;;;;;5074803;28;20185;-68
2022/12/11 01:12:34;;;;;;;0.70;0.70;;;-5.60;92.70;;;;;;5074917;28;20226;-67
2022/12/11 01:14:59;;;;;;;0.60;0.60;;;-5.60;92.90;;;;;;5074515;28;20173;-67
2022/12/11 01:17:25;;;;;;;1.80;1.70;;;-5.60;93.00;;;;;;5074578;28;20315;-68
2022/12/11 01:19:53;;;;;;;0.60;0.60;;;-5.70;92.90;;;;;;5074519;28;20707;-68
2022/12/11 01:22:19;;;;;;;0.50;0.50;;;-5.60;92.90;;;;;;5074557;28;20681;-68
2022/12/11 01:24:44;;;;;;;0.60;0.60;;;-5.70;92.80;;;;;;5074339;28;20177;-68
2022/12/11 01:27:10;;;;;;;0.70;0.70;;;-5.60;92.70;;;;;;5074707;28;20551;-67
2022/12/11 01:29:36;;;;;;;0.50;0.50;;;-5.60;92.60;;;;;;5074303;28;20174;-67
2022/12/11 01:32:01;;;;;;;0.60;0.60;;;-5.50;92.60;;;;;;5074363;28;20178;-68
2022/12/11 01:34:31;;;;;;;0.60;0.60;;;-5.50;92.60;;;;;;5074298;28;20174;-68
2022/12/11 01:36:56;;;;;;;0.70;0.70;;;-5.60;98.30;;;;;;5073544;28;20190;-68
2022/12/11 01:39:22;;;;;;;0.70;0.70;;;-5.70;92.50;;;;;;5074653;28;20692;-68
2022/12/11 01:41:48;;;;;;;0.60;0.60;;;-5.70;92.50;;;;;;5074028;28;20451;-67
2022/12/11 01:44:13;;;;;;;0.60;0.60;;;-5.80;92.40;;;;;;5073937;28;20158;-68
2022/12/11 01:46:39;;;;;;;0.77;0.77;;;-5.90;92.50;;;;;;5074137;28;20170;-68
2022/12/11 01:49:10;;;;;;;0.70;0.70;;;-5.80;92.70;;;;;;5073920;28;20231;-68
2022/12/11 01:51:42;;;;;;;0.68;0.68;;;-5.80;92.70;;;;;;5074115;28;20530;-68
2022/12/11 01:54:12;;;;;;;2.65;2.55;;;-5.80;92.60;;;;;;5073996;28;20248;-68
2022/12/11 01:56:39;;;;;;;0.50;0.50;;;-5.80;92.70;;;;;;5074113;28;20174;-68
2022/12/11 01:59:07;;;;;;;0.60;0.60;;;-5.80;92.60;;;;;;5073724;28;20325;-68
2022/12/11 02:01:41;;;;;;;0.50;0.50;;;-5.80;92.50;;;;;;5073661;28;20280;-68
2022/12/11 02:04:09;;;;;;;1.75;1.73;;;-5.80;92.50;;;;;;5073771;28;20165;-68
2022/12/11 02:06:41;;;;;;;0.70;0.70;;;-5.80;92.40;;;;;;5072434;28;20181;-68
2022/12/11 02:09:12;;;;;;;0.50;0.50;;;-5.80;92.40;;;;;;5073610;28;20238;-66
2022/12/11 02:12:16;;;;;;;0.55;0.55;;;-5.80;92.40;;;;;;5073915;28;20173;-67
2022/12/11 02:14:53;;;;;;;0.60;0.60;;;-5.90;92.40;;;;;;5072355;28;20188;-68
2022/12/11 02:17:33;;;;;;;0.63;0.63;;;-5.90;92.60;;;;;;5073495;28;20587;-68
2022/12/11 02:20:14;;;;;;;1.58;1.58;;;-5.80;92.60;;;;;;5073650;28;20181;-67
2022/12/11 02:23:12;;;;;;;0.50;0.50;;;-5.70;92.40;;;;;;5073499;28;20197;-68
2022/12/11 02:26:16;;;;;;;0.60;0.60;;;-5.70;92.30;;;;;;5072500;28;20264;-68
2022/12/11 02:28:56;;;;;;;1.73;1.73;;;-5.70;92.40;;;;;;5072786;28;20196;-68
2022/12/11 02:31:44;;;;;;;0.60;0.60;;;-5.70;92.40;;;;;;5073653;28;20165;-67
2022/12/11 02:34:22;;;;;;;0.60;0.60;;;-5.80;92.30;;;;;;5073488;28;20168;-68
2022/12/11 02:36:56;;;;;;;0.60;0.60;;;-5.90;92.40;;;;;;5073429;28;20258;-67
2022/12/11 02:39:24;;;;;;;0.70;0.70;;;-6.00;92.30;;;;;;5073548;28;20157;-67
2022/12/11 02:41:50;;;;;;;0.70;0.70;;;-6.00;92.30;;;;;;5073407;28;20242;-67
2022/12/11 02:44:22;;;;;;;0.60;0.60;;;-6.00;92.40;;;;;;5073175;28;20169;-68
2022/12/11 02:46:48;;;;;;;0.63;0.63;;;-6.10;92.50;;;;;;5073400;28;20498;-68
2022/12/11 02:49:15;;;;;;;0.70;0.70;;;-6.10;92.60;;;;;;5074194;28;20188;-67
2022/12/11 02:51:43;;;;;;;0.65;0.65;;;-6.10;92.60;;;;;;5077530;28;20227;-67
2022/12/11 02:54:17;;;;;;;0.60;0.60;;;-6.10;92.80;;;;;;5077374;28;20173;-67
2022/12/11 02:56:57;;;;;;;0.65;0.65;;;-6.10;92.70;;;;;;5077468;28;20638;-67
2022/12/11 02:59:29;;;;;;;0.70;0.70;;;-6.10;92.60;;;;;;5077271;28;20540;-68
2022/12/11 03:01:55;;;;;;;0.98;0.98;;;-6.10;92.70;;;;;;5077251;28;20276;-66
2022/12/11 03:04:23;;;;;;;0.60;0.60;;;-5.90;92.60;;;;;;5076929;28;20196;-68
2022/12/11 03:07:00;;;;;;;0.55;0.55;;;-5.90;92.40;;;;;;5077237;28;20166;-68
2022/12/11 03:09:27;;;;;;;0.60;0.60;;;-6.00;92.20;;;;;;5077058;28;20154;-67
2022/12/11 03:11:53;;;;;;;0.60;0.60;;;-6.00;92.20;;;;;;5077051;28;20183;-68
2022/12/11 03:14:19;;;;;;;0.50;0.50;;;-6.10;92.20;;;;;;5076883;28;20572;-68
2022/12/11 03:17:04;;;;;;;0.70;0.70;;;-6.20;92.20;;;;;;5077051;28;20252;-68
2022/12/11 03:20:03;;;;;;;0.70;0.70;;;-6.10;92.20;;;;;;5075604;28;20722;-68
2022/12/11 03:22:59;;;;;;;0.50;0.50;;;-6.20;92.20;;;;;;5076170;28;20643;-68
2022/12/11 03:25:43;;;;;;;0.70;0.70;;;-6.30;92.50;;;;;;5076612;28;20166;-67
2022/12/11 03:28:19;;;;;;;0.60;0.60;;;-6.20;92.80;;;;;;5076632;28;20185;-67
2022/12/11 03:30:48;;;;;;;0.70;0.70;;;-6.00;93.20;;;;;;5076727;28;20634;-67
2022/12/11 03:33:22;;;;;;;0.57;0.57;;;-5.90;93.00;;;;;;5076697;28;20232;-68
2022/12/11 03:35:54;;;;;;;0.60;0.60;;;-5.90;92.80;;;;;;5076373;28;20536;-66
2022/12/11 03:38:29;;;;;;;1.75;1.75;;;-5.90;92.60;;;;;;5076348;28;20201;-68
2022/12/11 03:40:59;;;;;;;0.70;0.70;;;-6.00;92.60;;;;;;5076537;28;20177;-68
2022/12/11 03:43:26;;;;;;;0.60;0.60;;;-5.90;92.60;;;;;;5076328;28;20287;-67
2022/12/11 03:45:53;;;;;;;0.70;0.70;;;-5.80;92.20;;;;;;5076169;28;20579;-68
2022/12/11 03:48:20;;;;;;;0.50;0.50;;;-5.80;92.20;;;;;;5076514;28;20185;-68
2022/12/11 03:50:47;;;;;;;0.60;0.60;;;-5.90;92.40;;;;;;5076202;28;20257;-67
2022/12/11 03:53:14;;;;;;;1.30;1.25;;;-6.00;92.40;;;;;;5076211;28;20169;-67
2022/12/11 03:55:40;;;;;;;0.60;0.60;;;-6.00;92.40;;;;;;5075957;28;20650;-67
2022/12/11 03:58:06;;;;;;;0.50;0.50;;;-6.00;92.20;;;;;;5076118;28;20279;-67
2022/12/11 04:00:32;;;;;;;0.70;0.70;;;-5.90;92.40;;;;;;5075573;28;20209;-67
2022/12/11 04:03:13;;;;;;;0.75;0.75;;;-5.90;92.40;;;;;;5074677;28;20593;-67
2022/12/11 04:05:41;;;;;;;0.65;0.65;;;-5.90;92.50;;;;;;5076012;28;20249;-67
2022/12/11 04:08:07;;;;;;;0.60;0.60;;;-6.00;92.50;;;;;;5075998;28;20193;-68
2022/12/11 04:10:33;;;;;;;0.70;0.70;;;-6.10;92.30;;;;;;5075964;28;20173;-68
2022/12/11 04:12:58;;;;;;;0.80;0.80;;;-6.10;92.20;;;;;;5075851;28;20177;-67
2022/12/11 04:15:24;;;;;;;1.00;1.00;;;-6.10;92.10;;;;;;5074361;28;20238;-68
2022/12/11 04:26:07;;;;;;;0.70;0.70;;;-6.20;92.10;;;;;;5075529;28;20181;-67
2022/12/11 04:28:35;;;;;;;2.25;2.15;;;-6.10;92.30;;;;;;5075702;28;20186;-68
2022/12/11 04:31:01;;;;;;;0.60;0.60;;;-6.10;92.20;;;;;;5075609;28;20169;-67
2022/12/11 04:33:27;;;;;;;1.27;1.27;;;-6.10;92.10;;;;;;5075443;28;20208;-68
2022/12/11 04:35:53;;;;;;;0.50;0.50;;;-6.10;92.30;;;;;;5075223;28;20173;-68
2022/12/11 04:38:18;;;;;;;0.70;0.70;;;-6.10;92.50;;;;;;5075086;28;20215;-68
2022/12/11 04:40:44;;;;;;;0.50;0.50;;;-6.20;92.50;;;;;;5075274;28;20406;-67
2022/12/11 04:43:09;;;;;;;0.50;0.50;;;-6.10;92.30;;;;;;5075230;28;20197;-67
2022/12/11 04:45:35;;;;;;;0.63;0.63;;;-6.10;92.30;;;;;;5074937;28;20686;-66
2022/12/11 04:48:01;;;;;;;0.60;0.60;;;-6.00;92.40;;;;;;5075352;28;20205;-67
2022/12/11 04:50:26;;;;;;;0.50;0.50;;;-6.00;92.50;;;;;;5075113;28;20177;-67
2022/12/11 04:52:56;;;;;;;0.70;0.70;;;-6.00;92.50;;;;;;5075261;28;20188;-67
2022/12/11 04:55:22;;;;;;;0.63;0.63;;;-6.00;92.30;;;;;;5074857;28;20169;-67
2022/12/11 04:57:48;;;;;;;0.65;0.65;;;-6.10;92.20;;;;;;5075258;28;20194;-67
2022/12/11 05:00:14;;;;;;;0.87;0.87;;;-6.20;92.10;;;;;;5075125;28;20231;-67
2022/12/11 05:02:40;;;;;;;0.70;0.70;;;-6.30;92.10;;;;;;5074966;28;20220;-67
2022/12/11 05:05:08;;;;;;;2.55;2.45;;;-6.30;92.10;;;;;;5074690;28;20197;-66
2022/12/11 05:07:35;;;;;;;2.55;2.45;;;-6.30;92.20;;;;;;5074876;28;20197;-67
2022/12/11 05:10:01;;;;;;;0.52;0.52;;;-6.20;92.00;;;;;;5074717;28;20532;-67
2022/12/11 05:12:26;;;;;;;0.55;0.55;;;-6.20;91.80;;;;;;5073740;28;20170;-66
2022/12/11 05:14:53;;;;;;;0.50;0.50;;;-6.20;91.60;;;;;;5074437;28;20188;-67
2022/12/11 05:17:20;;;;;;;1.88;1.83;;;-6.30;91.60;;;;;;5074647;28;20766;-67
2022/12/11 05:19:49;;;;;;;0.60;0.60;;;-6.30;91.70;;;;;;5074521;28;20185;-67
2022/12/11 05:22:16;;;;;;;0.77;0.77;;;-6.40;91.80;;;;;;5074616;28;20207;-67
2022/12/11 05:24:42;;;;;;;0.70;0.70;;;-6.50;92.10;;;;;;5074235;28;20192;-67
2022/12/11 05:27:07;;;;;;;0.60;0.60;;;-6.60;99.10;;;;;;5074325;28;20165;-67
2022/12/11 05:29:33;;;;;;;0.50;0.50;;;-6.40;92.40;;;;;;5074365;28;20461;-67
2022/12/11 05:31:59;;;;;;;0.50;0.50;;;-6.40;92.40;;;;;;5074455;28;20177;-67
2022/12/11 05:34:24;;;;;;;0.60;0.60;;;-6.40;92.40;;;;;;5074150;28;20173;-67
2022/12/11 05:36:50;;;;;;;0.63;0.63;;;-6.30;92.20;;;;;;5074219;28;20193;-67
2022/12/11 05:39:15;;;;;;;0.60;0.60;;;-6.30;92.10;;;;;;5075015;28;20646;-67
2022/12/11 05:41:41;;;;;;;0.70;0.70;;;-6.30;92.10;;;;;;5074036;28;20732;-67
2022/12/11 05:44:09;;;;;;;0.77;0.77;;;-6.30;92.30;;;;;;5074024;28;20173;-67
2022/12/11 05:46:34;;;;;;;0.68;0.68;;;-6.40;92.30;;;;;;5074167;28;20166;-67
2022/12/11 05:49:01;;;;;;;0.50;0.50;;;-6.40;92.20;;;;;;5073925;28;20193;-67
2022/12/11 05:51:27;;;;;;;0.55;0.55;;;-6.50;91.90;;;;;;5074109;28;20244;-67
2022/12/11 05:53:55;;;;;;;0.70;0.70;;;-6.60;91.80;;;;;;5073915;28;20177;-67
2022/12/11 05:56:29;;;;;;;0.68;0.68;;;-6.60;91.90;;;;;;5073712;28;20254;-67
2022/12/11 05:58:55;;;;;;;0.80;0.80;;;-6.60;91.60;;;;;;5073881;28;20556;-67
2022/12/11 06:01:25;;;;;;;0.50;0.50;;;-6.50;91.60;;;;;;5073869;28;20166;-67
2022/12/11 06:03:52;;;;;;;1.30;1.30;;;-6.60;91.60;;;;;;5073678;28;20169;-67
2022/12/11 06:06:18;;;;;;;0.77;0.77;;;-6.50;91.60;;;;;;5073654;28;20627;-67
2022/12/11 06:08:43;;;;;;;1.33;1.33;;;-6.50;91.70;;;;;;5073621;28;20189;-67
2022/12/11 06:11:11;;;;;;;0.50;0.50;;;-6.50;91.70;;;;;;5073797;28;20169;-67
2022/12/11 06:13:37;;;;;;;0.68;0.68;;;-6.60;91.80;;;;;;5073843;28;20170;-67
2022/12/11 06:16:04;;;;;;;0.70;0.70;;;-6.60;92.00;;;;;;5073623;28;20223;-67
2022/12/11 06:18:30;;;;;;;0.60;0.60;;;-6.50;92.10;;;;;;5073509;28;20284;-67
2022/12/11 06:20:55;;;;;;;0.60;0.60;;;-6.60;92.00;;;;;;5073513;28;20252;-67
2022/12/11 06:23:22;;;;;;;0.60;0.60;;;-6.60;91.90;;;;;;5073471;28;20708;-67
2022/12/11 06:25:47;;;;;;;0.57;0.57;;;-6.60;91.70;;;;;;5073440;28;20175;-67
2022/12/11 06:28:13;;;;;;;0.50;0.50;;;-6.70;91.60;;;;;;5073267;28;20185;-67
2022/12/11 06:30:39;;;;;;;0.63;0.63;;;-6.80;91.60;;;;;;5073457;28;20177;-67
2022/12/11 06:33:04;;;;;;;0.50;0.50;;;-6.80;91.70;;;;;;5073574;28;20169;-66
2022/12/11 06:35:30;;;;;;;0.53;0.53;;;-6.80;91.50;;;;;;5073371;28;20200;-67
2022/12/11 06:37:56;;;;;;;0.40;0.40;;;-6.70;91.50;;;;;;5073190;28;20212;-66
2022/12/11 06:40:21;;;;;;;0.50;0.50;;;-6.80;91.40;;;;;;5073389;28;20173;-67
2022/12/11 06:42:47;;;;;;;0.40;0.40;;;-6.80;91.40;;;;;;5073467;28;20201;-67
2022/12/11 06:45:13;;;;;;;0.53;0.53;;;-6.80;91.40;;;;;;5073085;28;20165;-67
2022/12/11 06:47:38;;;;;;;0.70;0.70;;;-6.90;91.30;;;;;;5073535;28;20213;-66
2022/12/11 06:50:04;;;;;;;0.50;0.50;;;-7.00;91.30;;;;;;5073263;28;20847;-66
2022/12/11 06:52:30;;;;;;;0.70;0.70;;;-7.00;91.50;;;;;;5073323;28;20578;-66
2022/12/11 06:54:55;;;;;;;0.70;0.70;;;-7.00;91.50;;;;;;5073046;28;20493;-67
2022/12/11 06:57:21;;;;;;;0.70;0.70;;;-7.00;91.60;;;;;;5073196;28;20220;-67
2022/12/11 06:59:47;;;;;;;0.57;0.57;;;-7.00;91.80;;;;;;5073196;28;20415;-67
2022/12/11 07:02:19;;;;;;;0.60;0.60;;;-7.00;91.80;;;;;;5073282;28;20304;-66
2022/12/11 07:04:45;;;;;;;0.60;0.60;;;-7.00;91.60;;;;;;5073206;28;20166;-67
2022/12/11 07:07:11;;;;;;;0.50;0.50;;;-6.90;91.60;;;;;;5073093;28;20198;-67
2022/12/11 07:09:39;;;;;;;0.70;0.70;;;-6.80;91.80;;;;;;5073083;28;20223;-66
2022/12/11 07:12:06;;;;;;;0.68;0.68;;;-6.70;91.90;;;;;;5073227;28;20404;-66
2022/12/11 07:14:32;;;;;;;0.57;0.57;;;-6.80;91.80;;;;;;5073025;28;20702;-67
2022/12/11 07:16:58;;;;;;;0.52;0.52;;;-6.80;95.40;;;;;;5073172;28;20181;-67
2022/12/11 07:19:24;;;;;;;0.70;0.70;;;-6.70;91.70;;;;;;5072974;28;20201;-67
2022/12/11 07:21:50;;;;;;;0.70;0.70;;;-6.70;91.40;;;;;;5072959;28;20206;-67
2022/12/11 07:24:16;;;;;;;0.60;0.60;;;-6.60;91.50;;;;;;5072881;28;20166;-67
2022/12/11 07:26:41;;;;;;;1.27;1.27;;;-6.60;91.50;;;;;;5073037;28;20193;-67
2022/12/11 07:29:07;;;;;;;0.60;0.60;;;-6.60;91.50;;;;;;5072761;28;20185;-66
2022/12/11 07:31:33;;;;;;;0.70;0.70;;;-6.60;91.30;;;;;;5072896;28;20176;-67
2022/12/11 07:34:01;;;;;;;0.60;0.60;;;-6.70;91.00;;;;;;5072903;28;20240;-66
2022/12/11 07:36:28;;;;;;;0.52;0.52;;;-6.80;91.00;;;;;;5075608;28;20463;-67
2022/12/11 07:38:53;;;;;;;2.10;2.10;;;-6.80;91.30;;;;;;5076389;28;20194;-67
2022/12/11 07:41:19;;;;;;;3.00;2.90;;;-6.70;91.50;;;;;;5076604;28;20584;-67
2022/12/11 07:43:45;;;;;;;0.50;0.50;;;-6.60;91.60;;;;;;5076540;28;20743;-67
2022/12/11 07:46:13;;;;;;;0.60;0.60;;;-6.50;91.70;;;;;;5076163;28;20234;-67
2022/12/11 07:48:40;;;;;;;0.50;0.50;;;-6.50;92.00;;;;;;5076272;28;20786;-67
2022/12/11 07:51:08;;;;;;;1.25;1.25;;;-6.50;91.40;;;;;;5076598;28;20265;-67
2022/12/11 07:53:33;;;;;;;0.52;0.52;;;-6.40;91.30;;;;;;5076304;28;20166;-67
2022/12/11 07:55:59;;;;;;;0.63;0.63;;;-6.30;91.30;;;;;;5076197;28;20657;-67
2022/12/11 07:58:25;;;;;;;0.70;0.70;;;-6.30;91.00;;;;;;5076010;28;20271;-67
2022/12/11 08:00:50;;;;;;;1.20;1.20;;;-6.30;90.80;;;;;;5076523;28;20548;-67
2022/12/11 08:03:16;;;;;;;0.67;0.67;;;-6.40;90.90;;;;;;5076203;28;20281;-67
2022/12/11 08:05:48;;;;;;;0.80;0.80;;;-6.40;91.10;;;;;;5075956;28;20408;-67
2022/12/11 08:08:14;;;;;;;1.20;1.20;;;-6.20;91.60;;;;;;5075988;28;20566;-68
2022/12/11 08:10:40;;;;;;;0.70;0.70;;;-5.80;92.20;;;;;;5074668;28;20181;-67
2022/12/11 08:13:05;;;;;;;0.70;0.70;;;-5.20;92.30;;;;;;5076070;28;20174;-68
2022/12/11 08:15:32;;;;;;;0.50;0.50;;;-4.50;92.20;;;;;;5075722;28;20201;-68
2022/12/11 08:17:58;;;;;;;0.70;0.70;;;-4.00;91.30;;;;;;5075738;28;20568;-67
2022/12/11 08:20:24;;;;;;;1.33;1.33;;;-3.70;91.10;;;;;;5075753;28;20176;-68
2022/12/11 08:22:49;;;;;;;0.40;0.40;;;-3.20;91.20;;;;;;5075699;28;20720;-68
2022/12/11 08:25:15;;;;;;;0.70;0.70;;;-2.80;90.30;;;;;;5075471;28;20161;-68
2022/12/11 08:27:41;;;;;;;0.30;0.30;;;-2.50;88.30;;;;;;5075562;28;20655;-68
2022/12/11 08:30:07;;;;;;;0.40;0.40;;;-2.00;87.90;;;;;;5075798;28;20169;-68
2022/12/11 08:32:33;;;;;;;2.78;1.95;;;-1.70;87.80;;;;;;5075519;28;20177;-68
2022/12/11 08:34:59;;;;;;;0.90;0.90;;;-1.50;86.50;;;;;;5075486;28;20181;-68
2022/12/11 08:37:24;;;;;;;1.40;1.40;;;-1.50;84.20;;;;;;5075226;28;20325;-69
2022/12/11 08:39:50;;;;;;;4.43;2.47;;;-1.40;83.50;;;;;;5075329;28;20166;-68
2022/12/11 08:42:16;;;;;;;1.93;1.80;;;-1.10;84.90;;;;;;5075598;28;20703;-68
2022/12/11 08:44:41;;;;;;;6.60;2.83;;;-0.70;83.50;;;;;;5075340;28;20174;-68
2022/12/11 08:47:08;;;;;;;0.50;0.50;;;0.10;92.50;;;;;;5075276;28;20174;-69
2022/12/11 08:49:34;;;;;;;2.45;1.75;;;0.10;83.00;;;;;;5075186;28;20183;-68
2022/12/11 08:52:02;;;;;;;2.75;2.33;;;0.50;84.10;;;;;;5075210;28;20199;-69
2022/12/11 08:54:28;;;;;;;1.70;1.65;;;0.90;81.50;;;;;;5075094;28;20181;-68
2022/12/11 08:56:54;;;;;;;1.47;1.37;;;2.00;82.50;;;;;;5074839;28;20183;-69
2022/12/11 08:59:19;;;;;;;1.57;1.47;;;1.90;77.90;;;;;;5075173;28;20223;-69
2022/12/11 09:01:45;;;;;;;1.60;1.50;;;2.40;76.60;;;;;;5075063;28;20242;-68
2022/12/11 09:04:10;;;;;;;1.27;1.27;;;3.10;76.60;;;;;;5074801;28;20161;-68
2022/12/11 09:06:36;;;;;;;1.10;1.10;;;4.20;73.10;;;;;;5074965;28;20621;-69
2022/12/11 09:09:02;;;;;;;2.70;2.50;;;5.30;68.10;;;;;;5074684;28;20197;-66
2022/12/11 09:11:32;;;;;;;1.80;1.70;;;6.30;63.40;;;;;;5073420;28;20165;-67
2022/12/11 09:13:58;;;;;;;2.13;1.83;;;7.50;58.90;;;;;;5074715;28;20177;-67
2022/12/11 09:16:25;;;;;;;4.07;3.53;;;8.80;53.50;;;;;;5074524;28;20458;-67
2022/12/11 09:18:52;;;;;;;1.80;1.70;;;9.50;48.50;;;;;;5074379;28;20420;-67
2022/12/11 09:21:21;;;;;;;2.43;2.33;;;9.70;45.10;;;;;;5074583;28;20815;-66
2022/12/11 09:23:47;;;;;;;0.73;0.73;;;9.40;44.90;;;;;;5074562;28;20472;-66
2022/12/11 09:26:15;;;;;;;3.90;1.57;;;9.70;46.00;;;;;;5074237;28;20490;-67
2022/12/11 09:28:41;;;;;;;2.40;2.00;;;10.20;44.40;;;;;;5074311;28;20432;-67
2022/12/11 09:31:18;;;;;;;5.33;3.07;;;10.60;43.50;;;;;;5074318;28;20945;-67
2022/12/11 09:33:44;;;;;;;1.33;1.23;;;11.20;42.20;;;;;;5074170;28;20410;-67
2022/12/11 09:36:10;;;;;;;1.87;1.77;;;12.10;40.90;;;;;;5072814;28;20403;-67
2022/12/11 09:38:36;;;;;;;0.83;0.80;;;12.80;39.70;;;;;;5074197;28;20426;-67
2022/12/11 09:41:20;;;;;;;3.10;1.73;;;13.50;38.80;;;;;;5074176;28;20399;-66
2022/12/11 09:44:08;;;;;;;1.53;1.47;;;14.20;38.40;;;;;;5074271;28;20184;-68
2022/12/11 09:46:36;;;;;;;5.00;4.60;;;14.90;36.80;;;;;;5074004;28;20450;-67
2022/12/11 09:49:09;;;;;;;4.73;4.30;;;15.40;35.70;;;;;;5074233;28;20781;-68
2022/12/11 09:51:48;;;;;;;1.57;1.47;;;15.60;34.50;;;;;;5074022;28;20405;-67
2022/12/11 09:54:14;;;;;;;2.20;2.10;;;15.80;33.90;;;;;;5073751;28;20406;-68
2022/12/11 09:57:18;;;;;;;2.40;1.90;;;16.00;34.20;;;;;;5072724;28;20414;-66
2022/12/11 10:00:11;;;;;;;4.20;1.57;;;16.10;33.70;;;;;;5071822;28;20194;-67
2022/12/11 10:02:59;;;;;;;1.47;1.20;;;16.00;32.70;;;;;;5073801;28;20449;-69
2022/12/11 10:05:40;;;;;;;1.90;1.80;;;15.70;33.20;;;;;;5073619;28;20775;-67
2022/12/11 10:08:19;;;;;;;3.33;2.03;;;15.50;33.30;;;;;;5073471;28;20432;-67
2022/12/11 10:11:21;;;;;;;1.73;1.60;;;15.60;33.40;;;;;;5073752;28;20410;-67
2022/12/11 10:14:13;;;;;;;1.27;1.10;;;15.50;33.30;;;;;;5073856;28;20406;-67
2022/12/11 10:16:49;;;;;;;3.23;2.10;;;15.50;33.40;;;;;;5073697;28;20409;-68
2022/12/11 10:19:22;;;;;;;2.47;1.90;;;15.50;33.40;;;;;;5073656;28;20428;-67
2022/12/11 10:21:50;;;;;;;3.70;2.30;;;15.30;33.30;;;;;;5073707;28;20493;-68
2022/12/11 10:24:48;;;;;;;1.80;1.70;;;15.20;33.40;;;;;;5073514;28;20459;-68
2022/12/11 10:27:21;;;;;;;2.50;2.30;;;15.30;33.50;;;;;;5073671;28;20912;-67
2022/12/11 10:30:11;;;;;;;3.73;3.37;;;15.10;33.40;;;;;;5073445;28;20383;-68
2022/12/11 10:33:09;;;;;;;2.17;2.07;;;14.40;33.80;;;;;;5073577;28;20775;-67
2022/12/11 10:35:42;;;;;;;1.30;1.20;;;14.00;34.90;;;;;;5072342;28;20804;-67
2022/12/11 10:38:15;;;;;;;2.43;1.03;;;13.70;35.50;;;;;;5073330;28;20451;-67
2022/12/11 10:40:50;;;;;;;5.40;3.17;;;12.90;36.80;;;;;;5073449;28;20388;-66
2022/12/11 10:43:16;;;;;;;4.10;3.73;;;12.50;37.60;;;;;;5073216;28;20462;-67
2022/12/11 10:45:50;;;;;;;0.90;0.90;;;12.10;38.10;;;;;;5073171;28;20398;-67
2022/12/11 10:48:16;;;;;;;0.60;0.60;;;11.50;39.40;;;;;;5073350;28;20452;-66
2022/12/11 10:50:45;;;;;;;0.70;0.70;;;11.00;39.40;;;;;;5073244;28;20419;-67
2022/12/11 10:53:20;;;;;;;1.25;1.15;;;10.50;40.10;;;;;;5073417;28;20181;-67
2022/12/11 10:55:47;;;;;;;0.85;0.80;;;9.10;40.70;;;;;;5073097;28;20168;-66
2022/12/11 10:58:23;;;;;;;0.30;0.30;;;7.80;43.60;;;;;;5073463;28;20190;-66
2022/12/11 11:00:59;;;;;;;0.60;0.60;;;6.70;41.80;;;;;;5073053;28;20511;-67
2022/12/11 11:03:26;;;;;;;0.80;0.80;;;6.00;43.20;;;;;;5073313;28;20200;-69
2022/12/11 11:06:13;;;;;;;0.70;0.70;;;5.50;44.60;;;;;;5072881;28;20167;-69
2022/12/11 11:08:44;;;;;;;1.75;0.63;;;5.20;45.40;;;;;;5073136;28;20266;-68
2022/12/11 11:11:21;;;;;;;0.40;0.40;;;5.10;47.90;;;;;;5075858;28;20607;-69
2022/12/11 11:13:47;;;;;;;0.40;0.40;;;4.80;49.70;;;;;;5077260;28;20244;-70
2022/12/11 11:16:16;;;;;;;0.40;0.40;;;4.90;49.70;;;;;;5076930;28;20252;-69
2022/12/11 11:18:53;;;;;;;0.40;0.40;;;4.50;49.60;;;;;;5076834;28;20509;-70
2022/12/11 11:21:22;;;;;;;0.80;0.80;;;4.30;50.30;;;;;;5077066;28;20172;-68
2022/12/11 11:23:49;;;;;;;0.40;0.40;;;4.40;50.10;;;;;;5076954;28;20174;-69
2022/12/11 11:26:15;;;;;;;0.40;0.40;;;4.30;48.70;;;;;;5076698;28;20173;-69
2022/12/11 11:28:47;;;;;;;0.40;0.40;;;4.40;49.10;;;;;;5076723;28;20272;-69
2022/12/11 11:31:15;;;;;;;0.40;0.40;;;4.10;48.10;;;;;;5076870;28;20803;-69
2022/12/11 11:33:57;;;;;;;1.35;1.35;;;4.00;48.70;;;;;;5076610;28;20170;-69
2022/12/11 11:36:26;;;;;;;0.40;0.40;;;3.90;49.70;;;;;;5076355;28;20596;-69
2022/12/11 11:39:10;;;;;;;0.30;0.30;;;3.90;49.20;;;;;;5076376;28;20201;-69
2022/12/11 11:41:59;;;;;;;0.45;0.45;;;3.80;49.30;;;;;;5076134;28;20172;-69
2022/12/11 11:44:33;;;;;;;0.35;0.35;;;3.50;48.40;;;;;;5076280;28;20176;-69
2022/12/11 11:47:13;;;;;;;0.30;0.30;;;3.30;54.20;;;;;;5076395;28;20158;-69
2022/12/11 11:50:11;;;;;;;0.40;0.40;;;3.30;51.40;;;;;;5076099;28;20174;-69
2022/12/11 11:52:48;;;;;;;0.40;0.40;;;3.00;53.10;;;;;;5075113;28;20174;-69
2022/12/11 11:55:31;;;;;;;3.00;1.42;;;2.70;53.80;;;;;;5076084;28;20536;-68
2022/12/11 11:58:01;;;;;;;0.30;0.30;;;2.50;54.40;;;;;;5076187;28;20257;-69
2022/12/11 12:00:29;;;;;;;0.40;0.40;;;2.30;55.00;;;;;;5076355;28;20180;-69
2022/12/11 12:03:02;;;;;;;0.30;0.30;;;2.30;56.10;;;;;;5076060;28;20579;-68
2022/12/11 12:05:34;;;;;;;1.60;1.50;;;2.20;55.50;;;;;;5076156;28;20201;-69
2022/12/11 12:08:21;;;;;;;0.30;0.30;;;2.40;55.60;;;;;;5075993;28;20648;-69
2022/12/11 12:11:00;;;;;;;0.40;0.40;;;2.50;55.60;;;;;;5076005;28;20307;-69
2022/12/11 12:13:49;;;;;;;0.40;0.40;;;2.50;56.30;;;;;;5076033;28;20173;-69
2022/12/11 12:16:41;;;;;;;0.88;0.88;;;2.40;55.60;;;;;;5075501;28;20164;-69
2022/12/11 12:19:34;;;;;;;0.40;0.40;;;2.40;57.00;;;;;;5073260;28;20201;-69
2022/12/11 12:22:19;;;;;;;0.50;0.50;;;2.40;57.70;;;;;;5075485;28;20292;-69
2022/12/11 12:24:48;;;;;;;0.30;0.30;;;2.40;57.00;;;;;;5075703;28;20169;-68
2022/12/11 12:27:52;;;;;;;0.40;0.40;;;2.40;71.40;;;;;;5075752;28;20170;-68
2022/12/11 12:30:19;;;;;;;0.40;0.40;;;2.40;58.90;;;;;;5074895;28;20270;-69
2022/12/11 12:33:04;;;;;;;0.50;0.50;;;2.40;58.30;;;;;;5075691;28;20176;-69
2022/12/11 12:35:34;;;;;;;0.93;0.93;;;2.40;58.40;;;;;;5075311;28;20178;-69
2022/12/11 12:38:05;;;;;;;0.40;0.40;;;2.30;58.40;;;;;;5075304;28;20211;-69
2022/12/11 12:40:46;;;;;;;0.40;0.40;;;2.20;57.80;;;;;;5075265;28;20180;-69
2022/12/11 12:43:49;;;;;;;2.25;1.42;;;2.00;58.20;;;;;;5075510;28;20204;-69
2022/12/11 12:46:36;;;;;;;0.30;0.30;;;1.80;60.10;;;;;;5075162;28;20177;-69
2022/12/11 12:49:03;;;;;;;0.40;0.40;;;1.60;60.70;;;;;;5075491;28;20714;-69
2022/12/11 12:51:29;;;;;;;0.40;0.40;;;1.40;61.80;;;;;;5075379;28;20211;-68
2022/12/11 12:53:59;;;;;;;3.05;0.90;;;1.30;63.10;;;;;;5075367;28;20172;-68
2022/12/11 12:56:28;;;;;;;0.30;0.30;;;1.10;64.40;;;;;;5075131;28;20164;-68
2022/12/11 12:58:53;;;;;;;0.32;0.32;;;1.00;65.80;;;;;;5074962;28;20196;-68
2022/12/11 13:01:22;;;;;;;0.30;0.30;;;0.80;66.40;;;;;;5074968;28;20162;-68
2022/12/11 13:04:06;;;;;;;0.30;0.30;;;1.50;67.80;;;;;;5075079;28;20202;-69
2022/12/11 13:06:46;;;;;;;0.65;0.60;;;0.50;68.40;;;;;;5074753;28;20206;-69
2022/12/11 13:09:18;;;;;;;0.40;0.40;;;0.40;71.10;;;;;;5074757;28;20185;-69
2022/12/11 13:11:45;;;;;;;0.68;0.68;;;0.30;73.30;;;;;;5074682;28;20174;-68
2022/12/11 13:14:14;;;;;;;0.60;0.60;;;0.20;76.20;;;;;;5074613;28;20584;-68
2022/12/11 13:16:44;;;;;;;0.30;0.30;;;0.30;78.10;;;;;;5074806;28;20288;-69